sensor_id;sensor_type;location;lat;lon;timestamp;P1;durP1;ratioP1;P2;durP2;ratioP2
22603;SDS011;11469;49.024;8.246;2023-11-21T00:02:01;13.13;;;2.92;;
22603;SDS011;11469;49.024;8.246;2023-11-21T00:04:26;13.38;;;2.95;;
22603;SDS011;11469;49.024;8.246;2023-11-21T00:06:52;12.93;;;2.55;;
22603;SDS011;11469;49.024;8.246;2023-11-21T00:09:19;19.48;;;3.08;;
22603;SDS011;11469;49.024;8.246;2023-11-21T00:11:44;21.52;;;3.30;;
22603;SDS011;11469;49.024;8.246;2023-11-21T00:14:13;13.93;;;2.70;;
22603;SDS011;11469;49.024;8.246;2023-11-21T00:16:40;16.27;;;3.20;;
22603;SDS011;11469;49.024;8.246;2023-11-21T00:19:06;16.13;;;2.63;;
22603;SDS011;11469;49.024;8.246;2023-11-21T00:21:31;17.58;;;2.30;;
22603;SDS011;11469;49.024;8.246;2023-11-21T00:23:57;15.93;;;2.80;;
22603;SDS011;11469;49.024;8.246;2023-11-21T00:26:23;18.80;;;3.00;;
22603;SDS011;11469;49.024;8.246;2023-11-21T00:28:52;22.67;;;3.17;;
22603;SDS011;11469;49.024;8.246;2023-11-21T00:31:17;13.00;;;2.78;;
22603;SDS011;11469;49.024;8.246;2023-11-21T00:33:42;12.95;;;3.22;;
22603;SDS011;11469;49.024;8.246;2023-11-21T00:36:08;17.95;;;3.13;;
22603;SDS011;11469;49.024;8.246;2023-11-21T00:38:35;8.30;;;2.38;;
22603;SDS011;11469;49.024;8.246;2023-11-21T00:41:00;11.93;;;2.92;;
22603;SDS011;11469;49.024;8.246;2023-11-21T00:43:26;16.48;;;2.67;;
22603;SDS011;11469;49.024;8.246;2023-11-21T00:45:51;18.42;;;2.85;;
22603;SDS011;11469;49.024;8.246;2023-11-21T00:48:17;9.63;;;2.30;;
22603;SDS011;11469;49.024;8.246;2023-11-21T00:50:43;14.10;;;3.03;;
22603;SDS011;11469;49.024;8.246;2023-11-21T00:53:09;14.40;;;2.53;;
22603;SDS011;11469;49.024;8.246;2023-11-21T00:55:34;8.90;;;1.92;;
22603;SDS011;11469;49.024;8.246;2023-11-21T00:58:00;12.48;;;2.30;;
22603;SDS011;11469;49.024;8.246;2023-11-21T01:00:25;18.00;;;2.08;;
22603;SDS011;11469;49.024;8.246;2023-11-21T01:02:51;13.30;;;2.08;;
22603;SDS011;11469;49.024;8.246;2023-11-21T01:05:16;10.02;;;2.22;;
22603;SDS011;11469;49.024;8.246;2023-11-21T01:07:42;5.57;;;1.75;;
22603;SDS011;11469;49.024;8.246;2023-11-21T01:10:10;7.15;;;1.80;;
22603;SDS011;11469;49.024;8.246;2023-11-21T01:12:36;18.98;;;2.33;;
22603;SDS011;11469;49.024;8.246;2023-11-21T01:15:03;13.70;;;2.13;;
22603;SDS011;11469;49.024;8.246;2023-11-21T01:17:32;12.95;;;2.03;;
22603;SDS011;11469;49.024;8.246;2023-11-21T01:20:03;9.50;;;1.88;;
22603;SDS011;11469;49.024;8.246;2023-11-21T01:22:35;8.02;;;1.80;;
22603;SDS011;11469;49.024;8.246;2023-11-21T01:25:01;14.60;;;2.20;;
22603;SDS011;11469;49.024;8.246;2023-11-21T01:27:29;9.23;;;2.33;;
22603;SDS011;11469;49.024;8.246;2023-11-21T01:29:55;11.20;;;1.70;;
22603;SDS011;11469;49.024;8.246;2023-11-21T01:32:20;6.40;;;1.52;;
22603;SDS011;11469;49.024;8.246;2023-11-21T01:34:47;13.18;;;2.25;;
22603;SDS011;11469;49.024;8.246;2023-11-21T01:37:13;6.70;;;1.95;;
22603;SDS011;11469;49.024;8.246;2023-11-21T01:39:38;9.15;;;2.35;;
22603;SDS011;11469;49.024;8.246;2023-11-21T01:42:04;11.32;;;2.40;;
22603;SDS011;11469;49.024;8.246;2023-11-21T01:44:30;4.82;;;1.30;;
22603;SDS011;11469;49.024;8.246;2023-11-21T01:46:55;7.40;;;1.77;;
22603;SDS011;11469;49.024;8.246;2023-11-21T01:49:22;9.40;;;1.88;;
22603;SDS011;11469;49.024;8.246;2023-11-21T01:51:48;10.00;;;1.55;;
22603;SDS011;11469;49.024;8.246;2023-11-21T01:54:16;7.82;;;1.50;;
22603;SDS011;11469;49.024;8.246;2023-11-21T01:56:42;4.72;;;1.38;;
22603;SDS011;11469;49.024;8.246;2023-11-21T01:59:12;13.73;;;2.35;;
22603;SDS011;11469;49.024;8.246;2023-11-21T02:01:42;8.48;;;1.90;;
22603;SDS011;11469;49.024;8.246;2023-11-21T02:04:09;13.75;;;1.63;;
22603;SDS011;11469;49.024;8.246;2023-11-21T02:06:34;10.95;;;2.30;;
22603;SDS011;11469;49.024;8.246;2023-11-21T02:09:00;9.13;;;1.73;;
22603;SDS011;11469;49.024;8.246;2023-11-21T02:11:25;7.05;;;2.15;;
22603;SDS011;11469;49.024;8.246;2023-11-21T02:13:52;9.93;;;2.25;;
22603;SDS011;11469;49.024;8.246;2023-11-21T02:16:19;6.53;;;1.85;;
22603;SDS011;11469;49.024;8.246;2023-11-21T02:18:46;9.93;;;2.20;;
22603;SDS011;11469;49.024;8.246;2023-11-21T02:21:13;11.50;;;1.80;;
22603;SDS011;11469;49.024;8.246;2023-11-21T02:23:39;12.13;;;2.00;;
22603;SDS011;11469;49.024;8.246;2023-11-21T02:26:09;8.57;;;2.00;;
22603;SDS011;11469;49.024;8.246;2023-11-21T02:28:35;13.65;;;2.40;;
22603;SDS011;11469;49.024;8.246;2023-11-21T02:31:01;11.88;;;2.53;;
22603;SDS011;11469;49.024;8.246;2023-11-21T02:33:28;13.63;;;2.95;;
22603;SDS011;11469;49.024;8.246;2023-11-21T02:35:53;16.88;;;2.67;;
22603;SDS011;11469;49.024;8.246;2023-11-21T02:38:20;14.00;;;4.13;;
22603;SDS011;11469;49.024;8.246;2023-11-21T02:40:46;16.75;;;3.00;;
22603;SDS011;11469;49.024;8.246;2023-11-21T02:43:11;18.42;;;2.58;;
22603;SDS011;11469;49.024;8.246;2023-11-21T02:45:37;12.80;;;2.50;;
22603;SDS011;11469;49.024;8.246;2023-11-21T02:48:02;10.75;;;2.75;;
22603;SDS011;11469;49.024;8.246;2023-11-21T02:50:28;18.55;;;3.35;;
22603;SDS011;11469;49.024;8.246;2023-11-21T02:52:54;13.95;;;2.38;;
22603;SDS011;11469;49.024;8.246;2023-11-21T02:55:22;13.43;;;2.35;;
22603;SDS011;11469;49.024;8.246;2023-11-21T02:57:50;14.57;;;2.63;;
22603;SDS011;11469;49.024;8.246;2023-11-21T03:00:15;14.98;;;2.20;;
22603;SDS011;11469;49.024;8.246;2023-11-21T03:02:41;9.23;;;2.00;;
22603;SDS011;11469;49.024;8.246;2023-11-21T03:05:08;10.85;;;2.40;;
22603;SDS011;11469;49.024;8.246;2023-11-21T03:07:35;8.52;;;1.83;;
22603;SDS011;11469;49.024;8.246;2023-11-21T03:10:05;9.52;;;2.03;;
22603;SDS011;11469;49.024;8.246;2023-11-21T03:12:31;10.52;;;2.13;;
22603;SDS011;11469;49.024;8.246;2023-11-21T03:14:57;14.32;;;2.15;;
22603;SDS011;11469;49.024;8.246;2023-11-21T03:17:22;13.07;;;2.38;;
22603;SDS011;11469;49.024;8.246;2023-11-21T03:19:47;6.22;;;1.98;;
22603;SDS011;11469;49.024;8.246;2023-11-21T03:22:13;11.30;;;2.10;;
22603;SDS011;11469;49.024;8.246;2023-11-21T03:24:38;13.63;;;2.38;;
22603;SDS011;11469;49.024;8.246;2023-11-21T03:27:04;10.82;;;2.45;;
22603;SDS011;11469;49.024;8.246;2023-11-21T03:29:29;13.45;;;2.67;;
22603;SDS011;11469;49.024;8.246;2023-11-21T03:31:55;9.32;;;2.10;;
22603;SDS011;11469;49.024;8.246;2023-11-21T03:34:24;12.50;;;2.25;;
22603;SDS011;11469;49.024;8.246;2023-11-21T03:36:51;8.27;;;2.53;;
22603;SDS011;11469;49.024;8.246;2023-11-21T03:39:17;10.95;;;2.50;;
22603;SDS011;11469;49.024;8.246;2023-11-21T03:41:44;9.32;;;2.47;;
22603;SDS011;11469;49.024;8.246;2023-11-21T03:44:09;9.90;;;1.63;;
22603;SDS011;11469;49.024;8.246;2023-11-21T03:46:35;11.43;;;2.33;;
22603;SDS011;11469;49.024;8.246;2023-11-21T03:49:01;7.95;;;2.30;;
22603;SDS011;11469;49.024;8.246;2023-11-21T03:51:26;9.98;;;1.80;;
22603;SDS011;11469;49.024;8.246;2023-11-21T03:53:51;5.47;;;2.03;;
22603;SDS011;11469;49.024;8.246;2023-11-21T03:56:17;7.32;;;1.95;;
22603;SDS011;11469;49.024;8.246;2023-11-21T03:58:42;14.02;;;2.10;;
22603;SDS011;11469;49.024;8.246;2023-11-21T04:01:07;5.82;;;1.95;;
22603;SDS011;11469;49.024;8.246;2023-11-21T04:03:33;6.72;;;1.52;;
22603;SDS011;11469;49.024;8.246;2023-11-21T04:05:58;9.35;;;2.22;;
22603;SDS011;11469;49.024;8.246;2023-11-21T04:08:24;14.43;;;2.10;;
22603;SDS011;11469;49.024;8.246;2023-11-21T04:10:51;8.00;;;2.30;;
22603;SDS011;11469;49.024;8.246;2023-11-21T04:13:18;9.52;;;2.28;;
22603;SDS011;11469;49.024;8.246;2023-11-21T04:15:44;8.15;;;2.08;;
22603;SDS011;11469;49.024;8.246;2023-11-21T04:18:09;12.82;;;2.55;;
22603;SDS011;11469;49.024;8.246;2023-11-21T04:20:35;8.52;;;2.10;;
22603;SDS011;11469;49.024;8.246;2023-11-21T04:23:00;10.85;;;2.20;;
22603;SDS011;11469;49.024;8.246;2023-11-21T04:25:26;7.75;;;1.50;;
22603;SDS011;11469;49.024;8.246;2023-11-21T04:27:52;8.93;;;2.00;;
22603;SDS011;11469;49.024;8.246;2023-11-21T04:30:18;7.55;;;1.70;;
22603;SDS011;11469;49.024;8.246;2023-11-21T04:32:43;7.60;;;1.95;;
22603;SDS011;11469;49.024;8.246;2023-11-21T04:35:08;11.73;;;2.10;;
22603;SDS011;11469;49.024;8.246;2023-11-21T04:37:34;8.60;;;2.10;;
22603;SDS011;11469;49.024;8.246;2023-11-21T04:39:59;13.68;;;2.78;;
22603;SDS011;11469;49.024;8.246;2023-11-21T04:42:25;10.20;;;1.90;;
22603;SDS011;11469;49.024;8.246;2023-11-21T04:44:50;10.05;;;3.05;;
22603;SDS011;11469;49.024;8.246;2023-11-21T04:47:17;8.27;;;1.75;;
22603;SDS011;11469;49.024;8.246;2023-11-21T04:49:45;10.63;;;2.40;;
22603;SDS011;11469;49.024;8.246;2023-11-21T04:52:12;12.65;;;2.38;;
22603;SDS011;11469;49.024;8.246;2023-11-21T04:54:37;12.40;;;2.80;;
22603;SDS011;11469;49.024;8.246;2023-11-21T04:57:04;8.52;;;2.10;;
22603;SDS011;11469;49.024;8.246;2023-11-21T04:59:32;10.50;;;2.55;;
22603;SDS011;11469;49.024;8.246;2023-11-21T05:01:58;13.07;;;2.35;;
22603;SDS011;11469;49.024;8.246;2023-11-21T05:04:25;6.63;;;2.08;;
22603;SDS011;11469;49.024;8.246;2023-11-21T05:06:50;11.93;;;2.35;;
22603;SDS011;11469;49.024;8.246;2023-11-21T05:09:16;6.65;;;2.40;;
22603;SDS011;11469;49.024;8.246;2023-11-21T05:11:41;11.13;;;3.03;;
22603;SDS011;11469;49.024;8.246;2023-11-21T05:14:07;9.98;;;3.20;;
22603;SDS011;11469;49.024;8.246;2023-11-21T05:16:33;11.63;;;2.88;;
22603;SDS011;11469;49.024;8.246;2023-11-21T05:19:00;8.95;;;2.35;;
22603;SDS011;11469;49.024;8.246;2023-11-21T05:21:29;10.48;;;3.08;;
22603;SDS011;11469;49.024;8.246;2023-11-21T05:23:58;8.77;;;3.22;;
22603;SDS011;11469;49.024;8.246;2023-11-21T05:26:23;9.60;;;3.08;;
22603;SDS011;11469;49.024;8.246;2023-11-21T05:28:48;15.32;;;3.05;;
22603;SDS011;11469;49.024;8.246;2023-11-21T05:31:14;7.75;;;3.33;;
22603;SDS011;11469;49.024;8.246;2023-11-21T05:33:40;12.00;;;3.47;;
22603;SDS011;11469;49.024;8.246;2023-11-21T05:36:06;10.80;;;3.10;;
22603;SDS011;11469;49.024;8.246;2023-11-21T05:38:33;12.65;;;3.92;;
22603;SDS011;11469;49.024;8.246;2023-11-21T05:40:58;10.45;;;3.53;;
22603;SDS011;11469;49.024;8.246;2023-11-21T05:43:24;11.45;;;3.80;;
22603;SDS011;11469;49.024;8.246;2023-11-21T05:45:49;11.77;;;3.55;;
22603;SDS011;11469;49.024;8.246;2023-11-21T05:48:15;9.23;;;4.10;;
22603;SDS011;11469;49.024;8.246;2023-11-21T05:50:40;19.20;;;5.47;;
22603;SDS011;11469;49.024;8.246;2023-11-21T05:53:06;9.38;;;3.70;;
22603;SDS011;11469;49.024;8.246;2023-11-21T05:55:32;11.57;;;4.28;;
22603;SDS011;11469;49.024;8.246;2023-11-21T05:57:58;18.23;;;5.22;;
22603;SDS011;11469;49.024;8.246;2023-11-21T06:00:23;11.52;;;4.25;;
22603;SDS011;11469;49.024;8.246;2023-11-21T06:02:50;14.30;;;4.07;;
22603;SDS011;11469;49.024;8.246;2023-11-21T06:05:18;11.20;;;4.55;;
22603;SDS011;11469;49.024;8.246;2023-11-21T06:07:46;11.65;;;4.13;;
22603;SDS011;11469;49.024;8.246;2023-11-21T06:10:11;10.18;;;4.30;;
22603;SDS011;11469;49.024;8.246;2023-11-21T06:12:39;12.27;;;4.90;;
22603;SDS011;11469;49.024;8.246;2023-11-21T06:15:06;9.15;;;4.75;;
22603;SDS011;11469;49.024;8.246;2023-11-21T06:17:37;13.60;;;5.20;;
22603;SDS011;11469;49.024;8.246;2023-11-21T06:20:06;12.50;;;5.32;;
22603;SDS011;11469;49.024;8.246;2023-11-21T06:22:39;12.55;;;5.38;;
22603;SDS011;11469;49.024;8.246;2023-11-21T06:25:05;11.70;;;5.47;;
22603;SDS011;11469;49.024;8.246;2023-11-21T06:27:32;12.98;;;5.90;;
22603;SDS011;11469;49.024;8.246;2023-11-21T06:29:59;13.13;;;6.43;;
22603;SDS011;11469;49.024;8.246;2023-11-21T06:32:24;15.65;;;6.85;;
22603;SDS011;11469;49.024;8.246;2023-11-21T06:34:51;9.68;;;6.25;;
22603;SDS011;11469;49.024;8.246;2023-11-21T06:37:19;10.75;;;6.75;;
22603;SDS011;11469;49.024;8.246;2023-11-21T06:39:46;16.42;;;6.40;;
22603;SDS011;11469;49.024;8.246;2023-11-21T06:42:11;10.57;;;5.90;;
22603;SDS011;11469;49.024;8.246;2023-11-21T06:44:36;12.98;;;6.95;;
22603;SDS011;11469;49.024;8.246;2023-11-21T06:47:02;13.02;;;6.15;;
22603;SDS011;11469;49.024;8.246;2023-11-21T06:49:28;15.50;;;8.20;;
22603;SDS011;11469;49.024;8.246;2023-11-21T06:51:53;11.68;;;7.63;;
22603;SDS011;11469;49.024;8.246;2023-11-21T06:54:20;15.23;;;7.15;;
22603;SDS011;11469;49.024;8.246;2023-11-21T06:56:46;14.57;;;7.50;;
22603;SDS011;11469;49.024;8.246;2023-11-21T06:59:12;15.95;;;8.35;;
22603;SDS011;11469;49.024;8.246;2023-11-21T07:01:38;18.15;;;8.13;;
22603;SDS011;11469;49.024;8.246;2023-11-21T07:04:06;17.73;;;8.52;;
22603;SDS011;11469;49.024;8.246;2023-11-21T07:06:32;15.60;;;8.82;;
22603;SDS011;11469;49.024;8.246;2023-11-21T07:08:57;15.52;;;8.20;;
22603;SDS011;11469;49.024;8.246;2023-11-21T07:11:23;18.67;;;8.93;;
22603;SDS011;11469;49.024;8.246;2023-11-21T07:13:50;16.13;;;8.40;;
22603;SDS011;11469;49.024;8.246;2023-11-21T07:16:15;18.88;;;8.65;;
22603;SDS011;11469;49.024;8.246;2023-11-21T07:18:41;23.88;;;10.27;;
22603;SDS011;11469;49.024;8.246;2023-11-21T07:21:06;18.67;;;9.45;;
22603;SDS011;11469;49.024;8.246;2023-11-21T07:23:33;14.95;;;8.15;;
22603;SDS011;11469;49.024;8.246;2023-11-21T07:25:59;16.92;;;8.57;;
22603;SDS011;11469;49.024;8.246;2023-11-21T07:28:24;18.15;;;9.20;;
22603;SDS011;11469;49.024;8.246;2023-11-21T07:30:50;15.95;;;8.35;;
22603;SDS011;11469;49.024;8.246;2023-11-21T07:33:16;15.40;;;8.13;;
22603;SDS011;11469;49.024;8.246;2023-11-21T07:35:42;17.55;;;9.05;;
22603;SDS011;11469;49.024;8.246;2023-11-21T07:38:08;15.73;;;7.95;;
22603;SDS011;11469;49.024;8.246;2023-11-21T07:40:33;16.42;;;8.57;;
22603;SDS011;11469;49.024;8.246;2023-11-21T07:42:59;20.60;;;8.43;;
22603;SDS011;11469;49.024;8.246;2023-11-21T07:45:25;18.45;;;8.88;;
22603;SDS011;11469;49.024;8.246;2023-11-21T07:47:52;19.10;;;8.38;;
22603;SDS011;11469;49.024;8.246;2023-11-21T07:50:21;12.77;;;7.82;;
22603;SDS011;11469;49.024;8.246;2023-11-21T07:52:48;13.55;;;7.32;;
22603;SDS011;11469;49.024;8.246;2023-11-21T07:55:14;15.85;;;5.20;;
22603;SDS011;11469;49.024;8.246;2023-11-21T07:57:40;9.38;;;4.82;;
22603;SDS011;11469;49.024;8.246;2023-11-21T08:00:06;8.38;;;4.57;;
22603;SDS011;11469;49.024;8.246;2023-11-21T08:02:34;8.35;;;4.43;;
22603;SDS011;11469;49.024;8.246;2023-11-21T08:05:00;8.88;;;3.95;;
22603;SDS011;11469;49.024;8.246;2023-11-21T08:07:25;7.30;;;4.22;;
22603;SDS011;11469;49.024;8.246;2023-11-21T08:09:51;8.45;;;4.57;;
22603;SDS011;11469;49.024;8.246;2023-11-21T08:12:17;10.20;;;4.38;;
22603;SDS011;11469;49.024;8.246;2023-11-21T08:14:43;7.70;;;3.88;;
22603;SDS011;11469;49.024;8.246;2023-11-21T08:17:09;9.50;;;4.32;;
22603;SDS011;11469;49.024;8.246;2023-11-21T08:19:35;5.20;;;3.70;;
22603;SDS011;11469;49.024;8.246;2023-11-21T08:22:02;8.05;;;4.50;;
22603;SDS011;11469;49.024;8.246;2023-11-21T08:24:28;7.13;;;4.53;;
22603;SDS011;11469;49.024;8.246;2023-11-21T08:26:53;8.35;;;5.15;;
22603;SDS011;11469;49.024;8.246;2023-11-21T08:29:19;7.95;;;4.88;;
22603;SDS011;11469;49.024;8.246;2023-11-21T08:31:44;10.15;;;6.32;;
22603;SDS011;11469;49.024;8.246;2023-11-21T08:34:13;10.95;;;5.55;;
22603;SDS011;11469;49.024;8.246;2023-11-21T08:36:42;8.98;;;4.95;;
22603;SDS011;11469;49.024;8.246;2023-11-21T08:39:08;6.93;;;4.10;;
22603;SDS011;11469;49.024;8.246;2023-11-21T08:41:34;9.13;;;4.90;;
22603;SDS011;11469;49.024;8.246;2023-11-21T08:44:01;11.57;;;4.97;;
22603;SDS011;11469;49.024;8.246;2023-11-21T08:46:31;8.73;;;5.00;;
22603;SDS011;11469;49.024;8.246;2023-11-21T08:48:56;9.63;;;4.47;;
22603;SDS011;11469;49.024;8.246;2023-11-21T08:51:22;12.20;;;4.50;;
22603;SDS011;11469;49.024;8.246;2023-11-21T08:53:47;8.77;;;4.43;;
22603;SDS011;11469;49.024;8.246;2023-11-21T08:56:13;7.30;;;3.80;;
22603;SDS011;11469;49.024;8.246;2023-11-21T08:58:41;6.63;;;3.75;;
22603;SDS011;11469;49.024;8.246;2023-11-21T09:01:06;6.43;;;3.70;;
22603;SDS011;11469;49.024;8.246;2023-11-21T09:03:32;6.13;;;4.00;;
22603;SDS011;11469;49.024;8.246;2023-11-21T09:05:59;5.00;;;3.63;;
22603;SDS011;11469;49.024;8.246;2023-11-21T09:08:25;8.43;;;4.35;;
22603;SDS011;11469;49.024;8.246;2023-11-21T09:10:50;8.55;;;4.47;;
22603;SDS011;11469;49.024;8.246;2023-11-21T09:13:15;6.70;;;4.53;;
22603;SDS011;11469;49.024;8.246;2023-11-21T09:15:42;6.90;;;4.43;;
22603;SDS011;11469;49.024;8.246;2023-11-21T09:18:08;6.80;;;4.72;;
22603;SDS011;11469;49.024;8.246;2023-11-21T09:20:35;12.43;;;4.78;;
22603;SDS011;11469;49.024;8.246;2023-11-21T09:23:00;7.43;;;5.40;;
22603;SDS011;11469;49.024;8.246;2023-11-21T09:25:26;8.27;;;5.05;;
22603;SDS011;11469;49.024;8.246;2023-11-21T09:27:53;11.35;;;5.32;;
22603;SDS011;11469;49.024;8.246;2023-11-21T09:30:19;10.88;;;5.22;;
22603;SDS011;11469;49.024;8.246;2023-11-21T09:32:45;7.70;;;5.13;;
22603;SDS011;11469;49.024;8.246;2023-11-21T09:35:10;12.55;;;6.05;;
22603;SDS011;11469;49.024;8.246;2023-11-21T09:37:36;10.07;;;5.53;;
22603;SDS011;11469;49.024;8.246;2023-11-21T09:40:03;7.90;;;5.57;;
22603;SDS011;11469;49.024;8.246;2023-11-21T09:42:32;7.68;;;5.22;;
22603;SDS011;11469;49.024;8.246;2023-11-21T09:47:35;7.38;;;4.95;;
22603;SDS011;11469;49.024;8.246;2023-11-21T09:50:05;9.50;;;5.88;;
22603;SDS011;11469;49.024;8.246;2023-11-21T09:52:47;8.55;;;5.22;;
22603;SDS011;11469;49.024;8.246;2023-11-21T09:55:15;10.63;;;6.18;;
22603;SDS011;11469;49.024;8.246;2023-11-21T09:57:44;9.45;;;5.55;;
22603;SDS011;11469;49.024;8.246;2023-11-21T10:00:11;7.88;;;4.97;;
22603;SDS011;11469;49.024;8.246;2023-11-21T10:02:38;8.20;;;4.82;;
22603;SDS011;11469;49.024;8.246;2023-11-21T10:05:06;8.57;;;5.60;;
22603;SDS011;11469;49.024;8.246;2023-11-21T10:07:32;8.35;;;5.55;;
22603;SDS011;11469;49.024;8.246;2023-11-21T10:09:59;10.68;;;5.05;;
22603;SDS011;11469;49.024;8.246;2023-11-21T10:12:26;10.90;;;6.13;;
22603;SDS011;11469;49.024;8.246;2023-11-21T10:14:53;8.70;;;5.53;;
22603;SDS011;11469;49.024;8.246;2023-11-21T10:17:22;8.90;;;5.35;;
22603;SDS011;11469;49.024;8.246;2023-11-21T10:19:51;8.48;;;5.38;;
22603;SDS011;11469;49.024;8.246;2023-11-21T10:22:18;11.55;;;5.65;;
22603;SDS011;11469;49.024;8.246;2023-11-21T10:24:45;10.50;;;5.78;;
22603;SDS011;11469;49.024;8.246;2023-11-21T10:27:11;8.85;;;5.25;;
22603;SDS011;11469;49.024;8.246;2023-11-21T10:29:38;11.02;;;5.15;;
22603;SDS011;11469;49.024;8.246;2023-11-21T10:32:04;14.10;;;6.15;;
22603;SDS011;11469;49.024;8.246;2023-11-21T10:34:30;17.55;;;6.88;;
22603;SDS011;11469;49.024;8.246;2023-11-21T10:36:56;7.05;;;5.07;;
22603;SDS011;11469;49.024;8.246;2023-11-21T10:39:23;8.82;;;4.90;;
22603;SDS011;11469;49.024;8.246;2023-11-21T10:41:52;11.50;;;4.75;;
22603;SDS011;11469;49.024;8.246;2023-11-21T10:44:19;7.65;;;4.18;;
22603;SDS011;11469;49.024;8.246;2023-11-21T10:46:46;9.02;;;4.80;;
22603;SDS011;11469;49.024;8.246;2023-11-21T10:49:16;6.63;;;4.15;;
22603;SDS011;11469;49.024;8.246;2023-11-21T10:51:43;8.20;;;3.50;;
22603;SDS011;11469;49.024;8.246;2023-11-21T10:54:09;7.72;;;3.22;;
22603;SDS011;11469;49.024;8.246;2023-11-21T10:56:34;8.80;;;3.15;;
22603;SDS011;11469;49.024;8.246;2023-11-21T10:59:06;3.53;;;2.40;;
22603;SDS011;11469;49.024;8.246;2023-11-21T11:01:34;6.05;;;3.00;;
22603;SDS011;11469;49.024;8.246;2023-11-21T11:04:00;7.40;;;2.72;;
22603;SDS011;11469;49.024;8.246;2023-11-21T11:06:30;5.22;;;3.38;;
22603;SDS011;11469;49.024;8.246;2023-11-21T11:08:57;9.48;;;3.75;;
22603;SDS011;11469;49.024;8.246;2023-11-21T11:11:25;6.63;;;3.33;;
22603;SDS011;11469;49.024;8.246;2023-11-21T11:13:50;6.32;;;3.28;;
22603;SDS011;11469;49.024;8.246;2023-11-21T11:16:17;9.23;;;3.55;;
22603;SDS011;11469;49.024;8.246;2023-11-21T11:18:43;5.13;;;3.80;;
22603;SDS011;11469;49.024;8.246;2023-11-21T11:27:06;4.75;;;3.30;;
22603;SDS011;11469;49.024;8.246;2023-11-21T11:29:54;5.70;;;3.55;;
22603;SDS011;11469;49.024;8.246;2023-11-21T11:33:04;6.00;;;4.05;;
22603;SDS011;11469;49.024;8.246;2023-11-21T11:35:33;6.00;;;4.38;;
22603;SDS011;11469;49.024;8.246;2023-11-21T11:38:07;7.93;;;4.38;;
22603;SDS011;11469;49.024;8.246;2023-11-21T11:40:45;8.50;;;3.97;;
22603;SDS011;11469;49.024;8.246;2023-11-21T11:43:11;10.48;;;4.78;;
22603;SDS011;11469;49.024;8.246;2023-11-21T11:45:36;9.32;;;4.60;;
22603;SDS011;11469;49.024;8.246;2023-11-21T11:48:06;10.90;;;5.45;;
22603;SDS011;11469;49.024;8.246;2023-11-21T11:50:31;9.15;;;4.90;;
22603;SDS011;11469;49.024;8.246;2023-11-21T11:53:11;12.15;;;4.38;;
22603;SDS011;11469;49.024;8.246;2023-11-21T11:55:40;6.95;;;3.85;;
22603;SDS011;11469;49.024;8.246;2023-11-21T11:58:06;5.30;;;3.95;;
22603;SDS011;11469;49.024;8.246;2023-11-21T12:00:33;6.95;;;3.88;;
22603;SDS011;11469;49.024;8.246;2023-11-21T12:03:03;11.02;;;4.72;;
22603;SDS011;11469;49.024;8.246;2023-11-21T12:05:31;7.97;;;4.25;;
22603;SDS011;11469;49.024;8.246;2023-11-21T12:07:58;7.18;;;4.40;;
22603;SDS011;11469;49.024;8.246;2023-11-21T12:10:26;7.35;;;4.13;;
22603;SDS011;11469;49.024;8.246;2023-11-21T12:12:56;12.05;;;5.75;;
22603;SDS011;11469;49.024;8.246;2023-11-21T12:15:23;7.97;;;4.80;;
22603;SDS011;11469;49.024;8.246;2023-11-21T12:17:50;7.18;;;4.22;;
22603;SDS011;11469;49.024;8.246;2023-11-21T12:20:20;12.05;;;4.28;;
22603;SDS011;11469;49.024;8.246;2023-11-21T12:22:55;8.82;;;3.88;;
22603;SDS011;11469;49.024;8.246;2023-11-21T12:25:27;5.43;;;3.70;;
22603;SDS011;11469;49.024;8.246;2023-11-21T12:27:55;8.82;;;3.80;;
22603;SDS011;11469;49.024;8.246;2023-11-21T12:30:22;6.78;;;4.07;;
22603;SDS011;11469;49.024;8.246;2023-11-21T12:32:50;8.40;;;4.45;;
22603;SDS011;11469;49.024;8.246;2023-11-21T12:35:18;9.80;;;4.20;;
22603;SDS011;11469;49.024;8.246;2023-11-21T12:37:46;12.88;;;3.75;;
22603;SDS011;11469;49.024;8.246;2023-11-21T12:40:13;11.93;;;3.70;;
22603;SDS011;11469;49.024;8.246;2023-11-21T12:42:44;5.45;;;3.13;;
22603;SDS011;11469;49.024;8.246;2023-11-21T12:47:48;5.68;;;2.83;;
22603;SDS011;11469;49.024;8.246;2023-11-21T12:50:18;4.53;;;2.92;;
22603;SDS011;11469;49.024;8.246;2023-11-21T12:52:48;4.90;;;2.95;;
22603;SDS011;11469;49.024;8.246;2023-11-21T12:55:17;5.20;;;3.92;;
22603;SDS011;11469;49.024;8.246;2023-11-21T12:57:48;13.70;;;4.57;;
22603;SDS011;11469;49.024;8.246;2023-11-21T13:00:17;7.40;;;4.00;;
22603;SDS011;11469;49.024;8.246;2023-11-21T13:02:54;11.30;;;4.43;;
22603;SDS011;11469;49.024;8.246;2023-11-21T13:05:26;49.47;;;8.38;;
22603;SDS011;11469;49.024;8.246;2023-11-21T13:08:17;6.73;;;4.33;;
22603;SDS011;11469;49.024;8.246;2023-11-21T13:10:45;13.27;;;4.45;;
22603;SDS011;11469;49.024;8.246;2023-11-21T13:13:12;12.82;;;5.25;;
22603;SDS011;11469;49.024;8.246;2023-11-21T13:15:52;7.10;;;4.70;;
22603;SDS011;11469;49.024;8.246;2023-11-21T13:18:25;23.38;;;5.65;;
22603;SDS011;11469;49.024;8.246;2023-11-21T13:20:54;8.13;;;4.10;;
22603;SDS011;11469;49.024;8.246;2023-11-21T13:23:22;11.63;;;4.82;;
22603;SDS011;11469;49.024;8.246;2023-11-21T13:25:48;6.97;;;4.28;;
22603;SDS011;11469;49.024;8.246;2023-11-21T13:28:14;9.05;;;4.63;;
22603;SDS011;11469;49.024;8.246;2023-11-21T13:30:47;86.32;;;9.00;;
22603;SDS011;11469;49.024;8.246;2023-11-21T13:33:13;92.25;;;11.57;;
22603;SDS011;11469;49.024;8.246;2023-11-21T13:35:43;40.75;;;6.28;;
22603;SDS011;11469;49.024;8.246;2023-11-21T13:38:15;5.70;;;3.80;;
22603;SDS011;11469;49.024;8.246;2023-11-21T13:40:42;7.18;;;3.88;;
22603;SDS011;11469;49.024;8.246;2023-11-21T13:43:14;11.05;;;3.53;;
22603;SDS011;11469;49.024;8.246;2023-11-21T13:45:42;8.02;;;3.50;;
22603;SDS011;11469;49.024;8.246;2023-11-21T13:48:09;13.38;;;4.07;;
22603;SDS011;11469;49.024;8.246;2023-11-21T13:50:45;6.43;;;3.60;;
22603;SDS011;11469;49.024;8.246;2023-11-21T13:53:23;6.15;;;3.53;;
22603;SDS011;11469;49.024;8.246;2023-11-21T13:55:50;15.52;;;4.85;;
22603;SDS011;11469;49.024;8.246;2023-11-21T13:58:19;14.50;;;4.70;;
22603;SDS011;11469;49.024;8.246;2023-11-21T14:00:49;12.77;;;4.20;;
22603;SDS011;11469;49.024;8.246;2023-11-21T14:03:24;14.25;;;4.32;;
22603;SDS011;11469;49.024;8.246;2023-11-21T14:05:57;9.70;;;3.72;;
22603;SDS011;11469;49.024;8.246;2023-11-21T14:08:25;34.55;;;8.18;;
22603;SDS011;11469;49.024;8.246;2023-11-21T14:10:57;8.68;;;4.85;;
22603;SDS011;11469;49.024;8.246;2023-11-21T14:13:24;16.17;;;8.32;;
22603;SDS011;11469;49.024;8.246;2023-11-21T14:15:50;7.40;;;2.83;;
22603;SDS011;11469;49.024;8.246;2023-11-21T14:18:23;5.78;;;3.28;;
22603;SDS011;11469;49.024;8.246;2023-11-21T14:20:55;6.05;;;2.85;;
22603;SDS011;11469;49.024;8.246;2023-11-21T14:23:21;5.80;;;3.10;;
22603;SDS011;11469;49.024;8.246;2023-11-21T14:25:48;8.88;;;3.40;;
22603;SDS011;11469;49.024;8.246;2023-11-21T14:28:15;8.32;;;2.90;;
22603;SDS011;11469;49.024;8.246;2023-11-21T14:30:40;10.05;;;3.85;;
22603;SDS011;11469;49.024;8.246;2023-11-21T14:33:07;7.88;;;3.45;;
22603;SDS011;11469;49.024;8.246;2023-11-21T14:35:35;5.97;;;2.95;;
22603;SDS011;11469;49.024;8.246;2023-11-21T14:38:00;5.53;;;2.63;;
22603;SDS011;11469;49.024;8.246;2023-11-21T14:40:27;6.70;;;3.35;;
22603;SDS011;11469;49.024;8.246;2023-11-21T14:42:58;7.82;;;2.90;;
22603;SDS011;11469;49.024;8.246;2023-11-21T14:45:26;6.97;;;2.35;;
22603;SDS011;11469;49.024;8.246;2023-11-21T14:47:53;4.07;;;2.00;;
22603;SDS011;11469;49.024;8.246;2023-11-21T14:50:30;6.63;;;2.13;;
22603;SDS011;11469;49.024;8.246;2023-11-21T14:53:03;6.20;;;2.28;;